KEAN/EAN METAR and TAF weather

Enter ICAO airport designator
Station Type Date Time Source
KEAN METAR 2021/04/13 23:15 UTC NOAA

KEAN 132315Z AUTO 02003KT 10SM OVC060 04/M11 A3017 RMK AO2 T00431110


Station Type Date Time Source
KEAN Decoded METAR 2021/04/13 23:15 UTC NOAA

Station name not available
Apr 13, 2021 - 07:15 PM EDT / 2021.04.13 2315 UTC
Wind: from the NNE (020 degrees) at 3 MPH (3 KT):0
Visibility: 10 mile(s):0
Sky conditions: overcast
Temperature: 39.7 F (4.3 C)
Dew Point: 12.2 F (-11.0 C)
Relative Humidity: 31%
Pressure (altimeter): 30.17 in. Hg (1021 hPa)
ob: KEAN 132315Z AUTO 02003KT 10SM OVC060 04/M11 A3017 RMK AO2 T00431110
cycle: 23

Station Type Date Time Source
KEAN TAF UTC NOAA

Error!

Example: see airport list